sensor_id;sensor_type;location;lat;lon;timestamp;P1;durP1;ratioP1;P2;durP2;ratioP2
52620;SDS011;38515;53.160;6.990;2023-08-08T00:00:08;748.40;;;693.20;;
52620;SDS011;38515;53.160;6.990;2023-08-08T00:02:35;747.58;;;692.60;;
52620;SDS011;38515;53.160;6.990;2023-08-08T00:05:01;764.72;;;707.58;;
52620;SDS011;38515;53.160;6.990;2023-08-08T00:07:27;760.38;;;703.80;;
52620;SDS011;38515;53.160;6.990;2023-08-08T00:09:55;738.78;;;684.28;;
52620;SDS011;38515;53.160;6.990;2023-08-08T00:12:22;720.63;;;668.10;;
52620;SDS011;38515;53.160;6.990;2023-08-08T00:14:48;746.28;;;691.28;;
52620;SDS011;38515;53.160;6.990;2023-08-08T00:17:14;754.45;;;698.78;;
52620;SDS011;38515;53.160;6.990;2023-08-08T00:19:40;755.17;;;698.72;;
52620;SDS011;38515;53.160;6.990;2023-08-08T00:22:06;746.35;;;691.33;;
52620;SDS011;38515;53.160;6.990;2023-08-08T00:24:31;731.80;;;678.03;;
52620;SDS011;38515;53.160;6.990;2023-08-08T00:26:57;753.03;;;697.42;;
52620;SDS011;38515;53.160;6.990;2023-08-08T00:29:23;756.20;;;700.08;;
52620;SDS011;38515;53.160;6.990;2023-08-08T00:31:49;739.78;;;685.13;;
52620;SDS011;38515;53.160;6.990;2023-08-08T00:34:15;747.45;;;691.35;;
52620;SDS011;38515;53.160;6.990;2023-08-08T00:36:40;746.20;;;691.33;;
52620;SDS011;38515;53.160;6.990;2023-08-08T00:39:06;743.22;;;688.03;;
52620;SDS011;38515;53.160;6.990;2023-08-08T00:41:33;730.97;;;677.47;;
52620;SDS011;38515;53.160;6.990;2023-08-08T00:43:58;726.80;;;672.33;;
52620;SDS011;38515;53.160;6.990;2023-08-08T00:46:25;747.15;;;691.75;;
52620;SDS011;38515;53.160;6.990;2023-08-08T00:48:54;742.25;;;687.20;;
52620;SDS011;38515;53.160;6.990;2023-08-08T00:51:20;751.08;;;695.63;;
52620;SDS011;38515;53.160;6.990;2023-08-08T00:53:47;735.88;;;681.30;;
52620;SDS011;38515;53.160;6.990;2023-08-08T00:56:14;748.55;;;693.13;;
52620;SDS011;38515;53.160;6.990;2023-08-08T00:58:42;749.10;;;694.10;;
52620;SDS011;38515;53.160;6.990;2023-08-08T01:01:11;735.15;;;680.70;;
52620;SDS011;38515;53.160;6.990;2023-08-08T01:03:37;742.60;;;688.00;;
52620;SDS011;38515;53.160;6.990;2023-08-08T01:06:05;742.22;;;686.80;;
52620;SDS011;38515;53.160;6.990;2023-08-08T01:08:58;721.40;;;667.90;;
52620;SDS011;38515;53.160;6.990;2023-08-08T01:11:32;719.15;;;666.13;;
52620;SDS011;38515;53.160;6.990;2023-08-08T01:14:00;690.25;;;638.47;;
52620;SDS011;38515;53.160;6.990;2023-08-08T01:16:27;723.50;;;669.83;;
52620;SDS011;38515;53.160;6.990;2023-08-08T01:18:54;732.35;;;678.47;;
52620;SDS011;38515;53.160;6.990;2023-08-08T01:21:20;740.83;;;685.58;;
52620;SDS011;38515;53.160;6.990;2023-08-08T01:23:56;733.17;;;679.17;;
52620;SDS011;38515;53.160;6.990;2023-08-08T01:26:35;759.88;;;704.53;;
52620;SDS011;38515;53.160;6.990;2023-08-08T01:29:01;738.13;;;683.40;;
52620;SDS011;38515;53.160;6.990;2023-08-08T01:31:27;722.60;;;669.65;;
52620;SDS011;38515;53.160;6.990;2023-08-08T01:33:53;736.78;;;682.35;;
52620;SDS011;38515;53.160;6.990;2023-08-08T01:36:30;724.88;;;671.50;;
52620;SDS011;38515;53.160;6.990;2023-08-08T01:39:03;728.42;;;674.20;;
52620;SDS011;38515;53.160;6.990;2023-08-08T01:41:35;727.97;;;673.97;;
52620;SDS011;38515;53.160;6.990;2023-08-08T01:44:04;746.70;;;690.97;;
52620;SDS011;38515;53.160;6.990;2023-08-08T01:46:31;728.47;;;674.72;;
52620;SDS011;38515;53.160;6.990;2023-08-08T01:48:59;727.33;;;673.65;;
52620;SDS011;38515;53.160;6.990;2023-08-08T01:51:25;757.55;;;701.60;;
52620;SDS011;38515;53.160;6.990;2023-08-08T01:53:51;724.13;;;671.45;;
52620;SDS011;38515;53.160;6.990;2023-08-08T01:56:17;734.25;;;680.83;;
52620;SDS011;38515;53.160;6.990;2023-08-08T01:58:43;742.28;;;688.55;;
52620;SDS011;38515;53.160;6.990;2023-08-08T02:01:09;716.15;;;664.10;;
52620;SDS011;38515;53.160;6.990;2023-08-08T02:03:35;703.75;;;652.10;;
52620;SDS011;38515;53.160;6.990;2023-08-08T02:06:01;700.75;;;649.17;;
52620;SDS011;38515;53.160;6.990;2023-08-08T02:08:27;689.45;;;639.67;;
52620;SDS011;38515;53.160;6.990;2023-08-08T02:10:53;638.10;;;592.63;;
52620;SDS011;38515;53.160;6.990;2023-08-08T02:13:18;665.42;;;618.40;;
52620;SDS011;38515;53.160;6.990;2023-08-08T02:15:44;696.92;;;645.92;;
52620;SDS011;38515;53.160;6.990;2023-08-08T02:18:10;704.08;;;650.80;;
52620;SDS011;38515;53.160;6.990;2023-08-08T02:20:36;711.03;;;658.53;;
52620;SDS011;38515;53.160;6.990;2023-08-08T02:23:02;701.85;;;649.63;;
52620;SDS011;38515;53.160;6.990;2023-08-08T02:25:28;702.00;;;650.03;;
52620;SDS011;38515;53.160;6.990;2023-08-08T02:27:56;702.53;;;650.33;;
52620;SDS011;38515;53.160;6.990;2023-08-08T02:30:22;723.75;;;670.65;;
52620;SDS011;38515;53.160;6.990;2023-08-08T02:32:48;717.25;;;664.75;;
52620;SDS011;38515;53.160;6.990;2023-08-08T02:35:13;725.05;;;671.05;;
52620;SDS011;38515;53.160;6.990;2023-08-08T02:37:39;687.08;;;637.83;;
52620;SDS011;38515;53.160;6.990;2023-08-08T02:40:05;747.80;;;691.22;;
52620;SDS011;38515;53.160;6.990;2023-08-08T02:42:33;694.38;;;644.10;;
52620;SDS011;38515;53.160;6.990;2023-08-08T02:44:58;687.17;;;637.38;;
52620;SDS011;38515;53.160;6.990;2023-08-08T02:47:24;675.75;;;627.00;;
52620;SDS011;38515;53.160;6.990;2023-08-08T02:49:50;707.22;;;655.22;;
52620;SDS011;38515;53.160;6.990;2023-08-08T02:52:16;751.58;;;693.08;;
52620;SDS011;38515;53.160;6.990;2023-08-08T02:54:42;714.88;;;662.00;;
52620;SDS011;38515;53.160;6.990;2023-08-08T02:57:08;683.65;;;633.83;;
52620;SDS011;38515;53.160;6.990;2023-08-08T02:59:36;702.38;;;651.00;;
52620;SDS011;38515;53.160;6.990;2023-08-08T03:02:03;691.83;;;642.15;;
52620;SDS011;38515;53.160;6.990;2023-08-08T03:04:29;718.22;;;666.20;;
52620;SDS011;38515;53.160;6.990;2023-08-08T03:06:55;701.22;;;650.90;;
52620;SDS011;38515;53.160;6.990;2023-08-08T03:09:21;700.65;;;650.65;;
52620;SDS011;38515;53.160;6.990;2023-08-08T03:11:47;692.65;;;643.35;;
52620;SDS011;38515;53.160;6.990;2023-08-08T03:14:13;691.30;;;642.28;;
52620;SDS011;38515;53.160;6.990;2023-08-08T03:16:39;705.90;;;654.88;;
52620;SDS011;38515;53.160;6.990;2023-08-08T03:19:05;712.83;;;661.47;;
52620;SDS011;38515;53.160;6.990;2023-08-08T03:21:30;670.72;;;623.42;;
52620;SDS011;38515;53.160;6.990;2023-08-08T03:23:57;690.90;;;642.15;;
52620;SDS011;38515;53.160;6.990;2023-08-08T03:26:23;682.20;;;633.35;;
52620;SDS011;38515;53.160;6.990;2023-08-08T03:28:49;688.78;;;639.80;;
52620;SDS011;38515;53.160;6.990;2023-08-08T03:31:18;721.60;;;668.70;;
52620;SDS011;38515;53.160;6.990;2023-08-08T03:33:44;729.28;;;676.35;;
52620;SDS011;38515;53.160;6.990;2023-08-08T03:36:10;679.22;;;628.70;;
52620;SDS011;38515;53.160;6.990;2023-08-08T03:38:36;697.88;;;645.20;;
52620;SDS011;38515;53.160;6.990;2023-08-08T03:41:03;693.25;;;641.35;;
52620;SDS011;38515;53.160;6.990;2023-08-08T03:43:29;703.60;;;651.78;;
52620;SDS011;38515;53.160;6.990;2023-08-08T03:45:55;731.75;;;678.10;;
52620;SDS011;38515;53.160;6.990;2023-08-08T03:48:21;736.85;;;681.53;;
52620;SDS011;38515;53.160;6.990;2023-08-08T03:50:47;759.45;;;703.08;;
52620;SDS011;38515;53.160;6.990;2023-08-08T03:53:13;739.35;;;684.78;;
52620;SDS011;38515;53.160;6.990;2023-08-08T03:55:38;752.10;;;697.33;;
52620;SDS011;38515;53.160;6.990;2023-08-08T03:58:04;743.92;;;689.22;;
52620;SDS011;38515;53.160;6.990;2023-08-08T04:00:33;740.15;;;685.28;;
52620;SDS011;38515;53.160;6.990;2023-08-08T04:02:58;749.47;;;693.83;;
52620;SDS011;38515;53.160;6.990;2023-08-08T04:05:24;748.95;;;694.20;;
52620;SDS011;38515;53.160;6.990;2023-08-08T04:07:50;738.90;;;684.92;;
52620;SDS011;38515;53.160;6.990;2023-08-08T04:10:16;750.55;;;694.72;;
52620;SDS011;38515;53.160;6.990;2023-08-08T04:12:42;738.28;;;683.15;;
52620;SDS011;38515;53.160;6.990;2023-08-08T04:15:08;749.95;;;694.25;;
52620;SDS011;38515;53.160;6.990;2023-08-08T04:17:34;757.85;;;702.03;;
52620;SDS011;38515;53.160;6.990;2023-08-08T04:20:00;758.97;;;701.92;;
52620;SDS011;38515;53.160;6.990;2023-08-08T04:22:26;776.20;;;717.75;;
52620;SDS011;38515;53.160;6.990;2023-08-08T04:24:52;761.50;;;704.88;;
52620;SDS011;38515;53.160;6.990;2023-08-08T04:27:18;771.05;;;713.83;;
52620;SDS011;38515;53.160;6.990;2023-08-08T04:29:44;784.17;;;725.03;;
52620;SDS011;38515;53.160;6.990;2023-08-08T04:32:09;756.55;;;700.20;;
52620;SDS011;38515;53.160;6.990;2023-08-08T04:34:35;750.75;;;694.78;;
52620;SDS011;38515;53.160;6.990;2023-08-08T04:37:01;763.10;;;705.53;;
52620;SDS011;38515;53.160;6.990;2023-08-08T04:39:27;770.10;;;712.17;;
52620;SDS011;38515;53.160;6.990;2023-08-08T04:41:53;770.55;;;712.72;;
52620;SDS011;38515;53.160;6.990;2023-08-08T04:44:19;748.28;;;692.58;;
52620;SDS011;38515;53.160;6.990;2023-08-08T04:46:45;778.00;;;720.03;;
52620;SDS011;38515;53.160;6.990;2023-08-08T04:49:11;766.67;;;709.40;;
52620;SDS011;38515;53.160;6.990;2023-08-08T04:51:37;763.05;;;705.95;;
52620;SDS011;38515;53.160;6.990;2023-08-08T04:54:02;763.10;;;705.30;;
52620;SDS011;38515;53.160;6.990;2023-08-08T04:56:28;740.08;;;685.42;;
52620;SDS011;38515;53.160;6.990;2023-08-08T04:58:54;749.45;;;693.75;;
52620;SDS011;38515;53.160;6.990;2023-08-08T05:01:20;730.05;;;676.13;;
52620;SDS011;38515;53.160;6.990;2023-08-08T05:03:47;737.03;;;683.10;;
52620;SDS011;38515;53.160;6.990;2023-08-08T05:06:13;710.03;;;658.53;;
52620;SDS011;38515;53.160;6.990;2023-08-08T05:08:39;718.97;;;666.45;;
52620;SDS011;38515;53.160;6.990;2023-08-08T05:11:05;696.60;;;645.92;;
52620;SDS011;38515;53.160;6.990;2023-08-08T05:13:31;680.45;;;632.15;;
52620;SDS011;38515;53.160;6.990;2023-08-08T05:15:57;700.40;;;650.22;;
52620;SDS011;38515;53.160;6.990;2023-08-08T05:18:23;723.30;;;670.08;;
52620;SDS011;38515;53.160;6.990;2023-08-08T05:20:48;711.55;;;659.38;;
52620;SDS011;38515;53.160;6.990;2023-08-08T05:23:14;702.13;;;651.00;;
52620;SDS011;38515;53.160;6.990;2023-08-08T05:25:40;706.88;;;654.50;;
52620;SDS011;38515;53.160;6.990;2023-08-08T05:28:06;706.90;;;653.90;;
52620;SDS011;38515;53.160;6.990;2023-08-08T05:30:32;712.97;;;660.25;;
52620;SDS011;38515;53.160;6.990;2023-08-08T05:32:58;698.60;;;646.95;;
52620;SDS011;38515;53.160;6.990;2023-08-08T05:35:24;723.83;;;669.85;;
52620;SDS011;38515;53.160;6.990;2023-08-08T05:37:50;718.60;;;664.92;;
52620;SDS011;38515;53.160;6.990;2023-08-08T05:40:16;738.22;;;683.05;;
52620;SDS011;38515;53.160;6.990;2023-08-08T05:42:41;775.85;;;717.25;;
52620;SDS011;38515;53.160;6.990;2023-08-08T05:45:08;765.95;;;707.22;;
52620;SDS011;38515;53.160;6.990;2023-08-08T05:47:33;764.22;;;705.47;;
52620;SDS011;38515;53.160;6.990;2023-08-08T05:49:59;764.67;;;705.30;;
52620;SDS011;38515;53.160;6.990;2023-08-08T05:52:25;664.45;;;617.00;;
52620;SDS011;38515;53.160;6.990;2023-08-08T05:54:51;661.58;;;612.30;;
52620;SDS011;38515;53.160;6.990;2023-08-08T05:57:17;632.17;;;588.45;;
52620;SDS011;38515;53.160;6.990;2023-08-08T05:59:43;705.88;;;651.83;;
52620;SDS011;38515;53.160;6.990;2023-08-08T06:02:10;642.78;;;595.22;;
52620;SDS011;38515;53.160;6.990;2023-08-08T06:04:36;680.40;;;627.35;;
52620;SDS011;38515;53.160;6.990;2023-08-08T06:07:02;661.92;;;613.90;;
52620;SDS011;38515;53.160;6.990;2023-08-08T06:09:27;669.90;;;619.33;;
52620;SDS011;38515;53.160;6.990;2023-08-08T06:11:53;692.58;;;642.45;;
52620;SDS011;38515;53.160;6.990;2023-08-08T06:14:19;692.10;;;641.50;;
52620;SDS011;38515;53.160;6.990;2023-08-08T06:16:45;714.70;;;662.30;;
52620;SDS011;38515;53.160;6.990;2023-08-08T06:19:11;637.83;;;591.95;;
52620;SDS011;38515;53.160;6.990;2023-08-08T06:21:40;687.63;;;636.70;;
52620;SDS011;38515;53.160;6.990;2023-08-08T06:24:06;668.17;;;618.33;;
52620;SDS011;38515;53.160;6.990;2023-08-08T06:26:32;721.38;;;668.08;;
52620;SDS011;38515;53.160;6.990;2023-08-08T06:28:58;687.83;;;636.10;;
52620;SDS011;38515;53.160;6.990;2023-08-08T06:31:27;716.05;;;662.13;;
52620;SDS011;38515;53.160;6.990;2023-08-08T06:33:53;611.30;;;564.28;;
52620;SDS011;38515;53.160;6.990;2023-08-08T06:36:25;610.88;;;565.03;;
52620;SDS011;38515;53.160;6.990;2023-08-08T06:38:56;631.38;;;584.45;;
52620;SDS011;38515;53.160;6.990;2023-08-08T06:41:24;633.30;;;586.95;;
52620;SDS011;38515;53.160;6.990;2023-08-08T06:43:50;648.35;;;600.35;;
52620;SDS011;38515;53.160;6.990;2023-08-08T06:46:16;633.35;;;585.75;;
52620;SDS011;38515;53.160;6.990;2023-08-08T06:48:45;621.58;;;574.45;;
52620;SDS011;38515;53.160;6.990;2023-08-08T06:51:12;620.58;;;574.33;;
52620;SDS011;38515;53.160;6.990;2023-08-08T06:53:38;617.58;;;572.47;;
52620;SDS011;38515;53.160;6.990;2023-08-08T06:56:04;581.03;;;540.65;;
52620;SDS011;38515;53.160;6.990;2023-08-08T06:58:29;549.75;;;512.00;;
52620;SDS011;38515;53.160;6.990;2023-08-08T07:00:55;592.38;;;550.33;;
52620;SDS011;38515;53.160;6.990;2023-08-08T07:03:21;561.08;;;523.28;;
52620;SDS011;38515;53.160;6.990;2023-08-08T07:05:47;591.38;;;548.08;;
52620;SDS011;38515;53.160;6.990;2023-08-08T07:08:17;520.83;;;487.33;;
52620;SDS011;38515;53.160;6.990;2023-08-08T07:10:44;591.53;;;549.50;;
52620;SDS011;38515;53.160;6.990;2023-08-08T07:13:10;484.55;;;454.02;;
52620;SDS011;38515;53.160;6.990;2023-08-08T07:15:36;520.60;;;485.25;;
52620;SDS011;38515;53.160;6.990;2023-08-08T07:18:02;558.22;;;519.65;;
52620;SDS011;38515;53.160;6.990;2023-08-08T07:20:28;634.95;;;588.33;;
52620;SDS011;38515;53.160;6.990;2023-08-08T07:22:54;628.70;;;583.00;;
52620;SDS011;38515;53.160;6.990;2023-08-08T07:25:20;589.28;;;547.40;;
52620;SDS011;38515;53.160;6.990;2023-08-08T07:27:46;495.83;;;465.38;;
52620;SDS011;38515;53.160;6.990;2023-08-08T07:30:12;462.92;;;435.25;;
52620;SDS011;38515;53.160;6.990;2023-08-08T07:32:38;475.20;;;446.23;;
52620;SDS011;38515;53.160;6.990;2023-08-08T07:35:04;442.63;;;416.10;;
52620;SDS011;38515;53.160;6.990;2023-08-08T07:37:34;476.25;;;446.52;;
52620;SDS011;38515;53.160;6.990;2023-08-08T07:40:01;528.65;;;492.75;;
52620;SDS011;38515;53.160;6.990;2023-08-08T07:42:27;488.00;;;456.85;;
52620;SDS011;38515;53.160;6.990;2023-08-08T07:44:53;492.48;;;461.52;;
52620;SDS011;38515;53.160;6.990;2023-08-08T07:47:19;497.70;;;466.00;;
52620;SDS011;38515;53.160;6.990;2023-08-08T07:49:46;489.88;;;458.00;;
52620;SDS011;38515;53.160;6.990;2023-08-08T07:52:12;488.85;;;458.05;;
52620;SDS011;38515;53.160;6.990;2023-08-08T07:54:38;492.48;;;461.42;;
52620;SDS011;38515;53.160;6.990;2023-08-08T07:57:04;512.80;;;480.05;;
52620;SDS011;38515;53.160;6.990;2023-08-08T07:59:30;479.70;;;449.77;;
52620;SDS011;38515;53.160;6.990;2023-08-08T08:01:56;487.40;;;456.90;;
52620;SDS011;38515;53.160;6.990;2023-08-08T08:04:21;477.05;;;447.88;;
52620;SDS011;38515;53.160;6.990;2023-08-08T08:06:48;513.67;;;481.25;;
52620;SDS011;38515;53.160;6.990;2023-08-08T08:09:13;494.85;;;463.70;;
52620;SDS011;38515;53.160;6.990;2023-08-08T08:11:39;478.70;;;450.38;;
52620;SDS011;38515;53.160;6.990;2023-08-08T08:14:05;486.42;;;456.55;;
52620;SDS011;38515;53.160;6.990;2023-08-08T08:16:46;504.02;;;472.70;;
52620;SDS011;38515;53.160;6.990;2023-08-08T08:19:12;473.65;;;443.83;;
52620;SDS011;38515;53.160;6.990;2023-08-08T08:21:38;497.52;;;459.42;;
52620;SDS011;38515;53.160;6.990;2023-08-08T08:24:04;456.02;;;428.33;;
52620;SDS011;38515;53.160;6.990;2023-08-08T08:26:30;448.60;;;422.02;;
52620;SDS011;38515;53.160;6.990;2023-08-08T08:28:59;467.98;;;439.85;;
52620;SDS011;38515;53.160;6.990;2023-08-08T08:31:25;416.90;;;393.13;;
52620;SDS011;38515;53.160;6.990;2023-08-08T08:33:51;487.33;;;457.50;;
52620;SDS011;38515;53.160;6.990;2023-08-08T08:36:16;453.70;;;426.23;;
52620;SDS011;38515;53.160;6.990;2023-08-08T08:38:42;498.48;;;467.35;;
52620;SDS011;38515;53.160;6.990;2023-08-08T08:41:08;455.10;;;427.67;;
52620;SDS011;38515;53.160;6.990;2023-08-08T08:43:39;447.15;;;420.50;;
52620;SDS011;38515;53.160;6.990;2023-08-08T08:46:05;544.80;;;505.00;;
52620;SDS011;38515;53.160;6.990;2023-08-08T08:48:35;474.33;;;445.17;;
52620;SDS011;38515;53.160;6.990;2023-08-08T08:51:01;466.45;;;437.42;;
52620;SDS011;38515;53.160;6.990;2023-08-08T08:53:31;437.95;;;412.27;;
52620;SDS011;38515;53.160;6.990;2023-08-08T08:55:57;446.60;;;420.00;;
52620;SDS011;38515;53.160;6.990;2023-08-08T08:58:24;440.15;;;414.63;;
52620;SDS011;38515;53.160;6.990;2023-08-08T09:00:51;423.55;;;398.38;;
52620;SDS011;38515;53.160;6.990;2023-08-08T09:03:17;405.58;;;382.50;;
52620;SDS011;38515;53.160;6.990;2023-08-08T09:05:44;407.20;;;383.60;;
52620;SDS011;38515;53.160;6.990;2023-08-08T09:08:11;461.50;;;432.88;;
52620;SDS011;38515;53.160;6.990;2023-08-08T09:10:40;420.20;;;395.08;;
52620;SDS011;38515;53.160;6.990;2023-08-08T09:13:06;422.02;;;397.92;;
52620;SDS011;38515;53.160;6.990;2023-08-08T09:15:33;446.40;;;419.35;;
52620;SDS011;38515;53.160;6.990;2023-08-08T09:17:59;431.23;;;405.77;;
52620;SDS011;38515;53.160;6.990;2023-08-08T09:20:26;405.02;;;382.17;;
52620;SDS011;38515;53.160;6.990;2023-08-08T09:22:55;414.13;;;389.88;;
52620;SDS011;38515;53.160;6.990;2023-08-08T09:25:22;415.83;;;392.30;;
52620;SDS011;38515;53.160;6.990;2023-08-08T09:27:50;405.25;;;382.23;;
52620;SDS011;38515;53.160;6.990;2023-08-08T09:30:18;417.13;;;391.73;;
52620;SDS011;38515;53.160;6.990;2023-08-08T09:32:45;394.52;;;371.52;;
52620;SDS011;38515;53.160;6.990;2023-08-08T09:35:11;359.90;;;340.38;;
52620;SDS011;38515;53.160;6.990;2023-08-08T09:37:37;424.85;;;399.08;;
52620;SDS011;38515;53.160;6.990;2023-08-08T09:40:04;411.13;;;385.25;;
52620;SDS011;38515;53.160;6.990;2023-08-08T09:42:34;412.33;;;389.23;;
52620;SDS011;38515;53.160;6.990;2023-08-08T09:45:00;384.20;;;362.65;;
52620;SDS011;38515;53.160;6.990;2023-08-08T09:47:27;423.25;;;397.90;;
52620;SDS011;38515;53.160;6.990;2023-08-08T09:49:59;402.30;;;378.80;;
52620;SDS011;38515;53.160;6.990;2023-08-08T09:52:30;405.38;;;382.02;;
52620;SDS011;38515;53.160;6.990;2023-08-08T09:54:56;367.90;;;348.08;;
52620;SDS011;38515;53.160;6.990;2023-08-08T09:57:23;411.38;;;386.70;;
52620;SDS011;38515;53.160;6.990;2023-08-08T09:59:49;393.35;;;371.13;;
52620;SDS011;38515;53.160;6.990;2023-08-08T10:02:17;412.55;;;388.27;;
52620;SDS011;38515;53.160;6.990;2023-08-08T10:04:47;471.38;;;439.65;;
52620;SDS011;38515;53.160;6.990;2023-08-08T10:07:13;443.52;;;414.98;;
52620;SDS011;38515;53.160;6.990;2023-08-08T10:09:40;446.48;;;417.25;;
52620;SDS011;38515;53.160;6.990;2023-08-08T10:12:06;415.45;;;390.83;;
52620;SDS011;38515;53.160;6.990;2023-08-08T10:14:37;409.52;;;384.52;;
52620;SDS011;38515;53.160;6.990;2023-08-08T10:17:04;375.27;;;353.20;;
52620;SDS011;38515;53.160;6.990;2023-08-08T10:19:30;388.00;;;365.30;;
52620;SDS011;38515;53.160;6.990;2023-08-08T10:21:58;367.30;;;345.30;;
52620;SDS011;38515;53.160;6.990;2023-08-08T10:24:25;462.98;;;430.88;;
52620;SDS011;38515;53.160;6.990;2023-08-08T10:26:56;461.13;;;430.88;;
52620;SDS011;38515;53.160;6.990;2023-08-08T10:29:24;514.20;;;474.70;;
52620;SDS011;38515;53.160;6.990;2023-08-08T10:31:52;457.48;;;425.42;;
52620;SDS011;38515;53.160;6.990;2023-08-08T10:34:26;552.20;;;510.33;;
52620;SDS011;38515;53.160;6.990;2023-08-08T10:37:08;537.58;;;497.40;;
52620;SDS011;38515;53.160;6.990;2023-08-08T10:39:36;556.72;;;514.45;;
52620;SDS011;38515;53.160;6.990;2023-08-08T10:42:05;555.60;;;515.50;;
52620;SDS011;38515;53.160;6.990;2023-08-08T10:44:31;604.13;;;558.05;;
52620;SDS011;38515;53.160;6.990;2023-08-08T10:47:05;559.28;;;517.97;;
52620;SDS011;38515;53.160;6.990;2023-08-08T10:49:31;596.90;;;552.92;;
52620;SDS011;38515;53.160;6.990;2023-08-08T10:52:01;620.42;;;573.22;;
52620;SDS011;38515;53.160;6.990;2023-08-08T10:54:28;619.78;;;572.67;;
52620;SDS011;38515;53.160;6.990;2023-08-08T10:56:56;601.33;;;556.97;;
52620;SDS011;38515;53.160;6.990;2023-08-08T10:59:24;628.80;;;579.78;;
52620;SDS011;38515;53.160;6.990;2023-08-08T11:02:01;596.30;;;554.05;;
52620;SDS011;38515;53.160;6.990;2023-08-08T11:04:28;633.83;;;585.10;;
52620;SDS011;38515;53.160;6.990;2023-08-08T11:06:57;673.85;;;619.20;;
52620;SDS011;38515;53.160;6.990;2023-08-08T11:09:24;663.92;;;610.63;;
52620;SDS011;38515;53.160;6.990;2023-08-08T11:11:51;638.80;;;588.63;;
52620;SDS011;38515;53.160;6.990;2023-08-08T11:14:18;658.40;;;606.63;;
52620;SDS011;38515;53.160;6.990;2023-08-08T11:16:46;568.33;;;527.03;;
52620;SDS011;38515;53.160;6.990;2023-08-08T11:19:13;550.38;;;511.55;;
52620;SDS011;38515;53.160;6.990;2023-08-08T11:21:41;489.70;;;457.48;;
52620;SDS011;38515;53.160;6.990;2023-08-08T11:24:09;446.30;;;420.20;;
52620;SDS011;38515;53.160;6.990;2023-08-08T11:26:37;514.90;;;477.98;;
52620;SDS011;38515;53.160;6.990;2023-08-08T11:29:05;499.83;;;465.30;;
52620;SDS011;38515;53.160;6.990;2023-08-08T11:31:31;526.60;;;489.52;;
52620;SDS011;38515;53.160;6.990;2023-08-08T11:33:59;525.97;;;489.45;;
52620;SDS011;38515;53.160;6.990;2023-08-08T11:36:29;479.83;;;447.33;;
52620;SDS011;38515;53.160;6.990;2023-08-08T11:39:02;431.30;;;404.40;;
52620;SDS011;38515;53.160;6.990;2023-08-08T11:41:34;391.40;;;368.40;;
52620;SDS011;38515;53.160;6.990;2023-08-08T11:44:04;384.42;;;363.35;;
52620;SDS011;38515;53.160;6.990;2023-08-08T11:46:30;380.27;;;360.10;;
52620;SDS011;38515;53.160;6.990;2023-08-08T11:49:03;327.33;;;310.70;;
52620;SDS011;38515;53.160;6.990;2023-08-08T11:51:32;380.53;;;359.30;;
52620;SDS011;38515;53.160;6.990;2023-08-08T11:53:59;305.17;;;289.52;;
52620;SDS011;38515;53.160;6.990;2023-08-08T11:56:26;248.52;;;236.25;;
52620;SDS011;38515;53.160;6.990;2023-08-08T11:58:52;376.40;;;356.60;;
52620;SDS011;38515;53.160;6.990;2023-08-08T12:01:21;304.38;;;288.88;;
52620;SDS011;38515;53.160;6.990;2023-08-08T12:03:48;303.27;;;287.13;;
52620;SDS011;38515;53.160;6.990;2023-08-08T12:06:17;220.40;;;209.70;;
52620;SDS011;38515;53.160;6.990;2023-08-08T12:08:44;222.60;;;211.70;;
52620;SDS011;38515;53.160;6.990;2023-08-08T12:11:10;298.70;;;283.25;;
52620;SDS011;38515;53.160;6.990;2023-08-08T12:13:38;189.90;;;180.55;;
52620;SDS011;38515;53.160;6.990;2023-08-08T12:16:09;206.95;;;196.90;;
52620;SDS011;38515;53.160;6.990;2023-08-08T12:18:37;183.23;;;174.40;;
52620;SDS011;38515;53.160;6.990;2023-08-08T12:21:04;144.60;;;138.07;;
52620;SDS011;38515;53.160;6.990;2023-08-08T12:23:32;191.10;;;181.80;;
52620;SDS011;38515;53.160;6.990;2023-08-08T12:25:59;162.45;;;154.63;;
52620;SDS011;38515;53.160;6.990;2023-08-08T12:28:25;186.88;;;178.15;;
52620;SDS011;38515;53.160;6.990;2023-08-08T12:30:51;184.45;;;175.50;;
52620;SDS011;38515;53.160;6.990;2023-08-08T12:33:17;243.80;;;232.20;;
52620;SDS011;38515;53.160;6.990;2023-08-08T12:35:43;164.65;;;156.55;;
52620;SDS011;38515;53.160;6.990;2023-08-08T12:38:09;227.18;;;216.50;;
52620;SDS011;38515;53.160;6.990;2023-08-08T12:40:35;126.32;;;120.20;;
52620;SDS011;38515;53.160;6.990;2023-08-08T12:43:01;200.93;;;191.30;;
52620;SDS011;38515;53.160;6.990;2023-08-08T12:45:27;156.00;;;147.63;;
52620;SDS011;38515;53.160;6.990;2023-08-08T12:47:53;231.38;;;220.20;;
52620;SDS011;38515;53.160;6.990;2023-08-08T12:50:22;254.73;;;241.57;;
52620;SDS011;38515;53.160;6.990;2023-08-08T12:52:48;349.98;;;329.85;;
52620;SDS011;38515;53.160;6.990;2023-08-08T12:55:14;335.73;;;318.20;;
52620;SDS011;38515;53.160;6.990;2023-08-08T12:57:42;407.83;;;381.60;;
52620;SDS011;38515;53.160;6.990;2023-08-08T13:00:13;360.67;;;341.30;;
52620;SDS011;38515;53.160;6.990;2023-08-08T13:02:39;358.38;;;339.08;;
52620;SDS011;38515;53.160;6.990;2023-08-08T13:05:07;381.83;;;360.90;;
52620;SDS011;38515;53.160;6.990;2023-08-08T13:07:35;328.77;;;311.60;;
52620;SDS011;38515;53.160;6.990;2023-08-08T13:10:04;325.23;;;308.08;;
52620;SDS011;38515;53.160;6.990;2023-08-08T13:12:30;316.75;;;299.98;;
52620;SDS011;38515;53.160;6.990;2023-08-08T13:14:56;321.83;;;305.27;;
52620;SDS011;38515;53.160;6.990;2023-08-08T13:17:22;324.67;;;307.83;;
52620;SDS011;38515;53.160;6.990;2023-08-08T13:19:48;350.77;;;331.95;;
52620;SDS011;38515;53.160;6.990;2023-08-08T13:22:15;376.58;;;356.17;;
52620;SDS011;38515;53.160;6.990;2023-08-08T13:24:42;308.67;;;291.83;;
52620;SDS011;38515;53.160;6.990;2023-08-08T13:27:12;260.55;;;247.90;;
52620;SDS011;38515;53.160;6.990;2023-08-08T13:29:37;382.05;;;360.90;;
52620;SDS011;38515;53.160;6.990;2023-08-08T13:32:03;236.77;;;224.70;;
52620;SDS011;38515;53.160;6.990;2023-08-08T13:34:29;298.25;;;282.48;;
52620;SDS011;38515;53.160;6.990;2023-08-08T13:36:55;287.25;;;272.63;;
52620;SDS011;38515;53.160;6.990;2023-08-08T13:39:21;348.25;;;330.10;;
52620;SDS011;38515;53.160;6.990;2023-08-08T13:41:47;347.40;;;328.95;;
52620;SDS011;38515;53.160;6.990;2023-08-08T13:44:13;334.70;;;317.55;;
52620;SDS011;38515;53.160;6.990;2023-08-08T13:46:39;325.98;;;308.67;;
52620;SDS011;38515;53.160;6.990;2023-08-08T13:49:05;290.35;;;274.80;;
52620;SDS011;38515;53.160;6.990;2023-08-08T13:51:30;272.40;;;258.27;;
52620;SDS011;38515;53.160;6.990;2023-08-08T13:53:56;227.18;;;216.00;;